createdAt,value
2022-09-26T00:00:23.828Z,31.38
2022-09-26T00:03:26.838Z,31.18
2022-09-26T00:06:30.472Z,31.20
2022-09-26T00:09:33.579Z,31.26
2022-09-26T00:12:36.757Z,30.96
2022-09-26T00:15:39.818Z,30.77
2022-09-26T00:18:43.531Z,31.03
2022-09-26T00:21:46.735Z,30.73
2022-09-26T00:24:49.818Z,30.65
2022-09-26T00:27:52.876Z,30.28
2022-09-26T00:30:56.513Z,30.40
2022-09-26T00:34:00.651Z,30.42
2022-09-26T00:37:03.766Z,30.43
2022-09-26T00:40:07.415Z,30.33
2022-09-26T00:43:29.076Z,30.17
2022-09-26T00:46:39.251Z,30.04
2022-09-26T00:49:44.514Z,30.00
2022-09-26T00:52:56.814Z,30.09
2022-09-26T00:56:06.246Z,29.99
2022-09-26T00:59:20.052Z,29.60
2022-09-26T01:02:23.513Z,29.50
2022-09-26T01:05:26.786Z,29.72
2022-09-26T01:08:34.036Z,29.66
2022-09-26T01:11:39.179Z,29.60
2022-09-26T01:14:42.878Z,29.57
2022-09-26T01:17:46.843Z,29.43
2022-09-26T01:21:12.648Z,29.28
2022-09-26T01:24:30.750Z,29.27
2022-09-26T01:27:45.651Z,28.76
2022-09-26T01:31:10.088Z,28.53
2022-09-26T01:34:23.508Z,28.47
2022-09-26T01:37:33.575Z,28.76
2022-09-26T01:40:54.830Z,28.79
2022-09-26T01:44:07.050Z,29.16
2022-09-26T01:47:52.738Z,29.12
2022-09-26T01:51:03.347Z,28.91
2022-09-26T01:54:24.042Z,28.88
2022-09-26T01:57:31.649Z,28.58
2022-09-26T02:00:37.266Z,28.71
2022-09-26T02:03:49.019Z,28.71
2022-09-26T02:07:02.057Z,28.85
2022-09-26T02:10:10.743Z,28.49
2022-09-26T02:14:01.466Z,28.22
2022-09-26T02:17:17.389Z,27.96
2022-09-26T02:20:31.540Z,28.01
2022-09-26T02:23:34.710Z,28.45
2022-09-26T02:26:37.873Z,28.25
2022-09-26T02:29:41.171Z,28.16
2022-09-26T02:32:44.239Z,28.16
2022-09-26T02:35:48.006Z,27.68
2022-09-26T02:38:52.275Z,27.91
2022-09-26T02:42:01.881Z,27.92
2022-09-26T02:45:20.203Z,28.09
2022-09-26T02:48:47.294Z,27.98
2022-09-26T02:51:59.146Z,27.92
2022-09-26T02:55:44.110Z,27.65
2022-09-26T02:59:05.011Z,27.64
2022-09-26T03:02:16.459Z,27.55
2022-09-26T03:05:23.130Z,27.47
2022-09-26T03:08:31.198Z,27.64
2022-09-26T03:11:34.686Z,27.12
2022-09-26T03:14:40.367Z,27.02
2022-09-26T03:17:47.975Z,27.37
2022-09-26T03:20:51.903Z,27.51
2022-09-26T03:23:55.373Z,27.10
2022-09-26T03:26:59.300Z,27.39
2022-09-26T03:30:02.316Z,27.44
2022-09-26T03:33:05.563Z,27.23
2022-09-26T03:36:08.982Z,27.32
2022-09-26T03:39:12.462Z,27.48
2022-09-26T03:42:15.782Z,27.34
2022-09-26T03:45:18.777Z,27.43
2022-09-26T03:48:22.203Z,26.99
2022-09-26T03:51:25.281Z,26.83
2022-09-26T03:54:28.397Z,26.89
2022-09-26T03:57:31.372Z,27.03
2022-09-26T04:00:34.593Z,27.05
2022-09-26T04:03:38.781Z,26.97
2022-09-26T04:06:41.941Z,26.94
2022-09-26T04:09:44.947Z,26.81
2022-09-26T04:12:48.099Z,26.81
2022-09-26T04:15:57.529Z,26.78
2022-09-26T04:19:00.697Z,26.67
2022-09-26T04:22:03.963Z,26.75
2022-09-26T04:25:07.530Z,26.80
2022-09-26T04:28:10.617Z,26.92
2022-09-26T04:31:14.112Z,26.54
2022-09-26T04:34:17.260Z,26.39
2022-09-26T04:37:20.281Z,26.40
2022-09-26T04:40:23.370Z,26.53
2022-09-26T04:43:26.501Z,26.42
2022-09-26T04:46:32.658Z,26.44
2022-09-26T04:49:35.893Z,26.19
2022-09-26T04:52:39.843Z,26.02
2022-09-26T04:55:47.008Z,26.16
2022-09-26T04:58:50.350Z,26.08
2022-09-26T05:01:53.438Z,26.21
2022-09-26T05:04:56.464Z,26.23
2022-09-26T05:07:59.552Z,25.80
2022-09-26T05:11:02.745Z,25.88
2022-09-26T05:14:08.398Z,25.85
2022-09-26T05:17:11.381Z,26.19
2022-09-26T05:20:14.512Z,26.11
2022-09-26T05:23:19.669Z,26.21
2022-09-26T05:26:25.979Z,26.31
2022-09-26T05:29:28.945Z,25.68
2022-09-26T05:32:31.970Z,25.86
2022-09-26T05:35:35.209Z,25.80
2022-09-26T05:38:38.505Z,25.47
2022-09-26T05:41:41.527Z,25.62
2022-09-26T05:44:44.892Z,25.65
2022-09-26T05:47:47.938Z,25.74
2022-09-26T05:50:53.437Z,25.71
2022-09-26T05:53:56.443Z,25.45
2022-09-26T05:56:59.554Z,25.38
2022-09-26T06:00:02.640Z,25.28
2022-09-26T06:03:05.710Z,25.40
2022-09-26T06:06:13.619Z,25.07
2022-09-26T06:09:17.616Z,25.09
2022-09-26T06:12:20.581Z,25.30
2022-09-26T06:15:23.842Z,25.23
2022-09-26T06:18:26.848Z,24.87
2022-09-26T06:21:29.881Z,25.01
2022-09-26T06:24:32.916Z,24.95
2022-09-26T06:27:36.508Z,24.87
2022-09-26T06:30:40.186Z,24.88
2022-09-26T06:33:44.247Z,25.19
2022-09-26T06:36:47.278Z,25.16
2022-09-26T06:39:50.318Z,24.65
2022-09-26T06:42:53.343Z,24.90
2022-09-26T06:45:56.805Z,24.28
2022-09-26T06:49:00.004Z,24.59
2022-09-26T06:52:03.440Z,24.64
2022-09-26T06:55:07.091Z,24.81
2022-09-26T06:58:10.126Z,24.94
2022-09-26T07:01:13.276Z,24.96
2022-09-26T07:04:16.442Z,24.84
2022-09-26T07:07:19.412Z,24.78
2022-09-26T07:10:22.584Z,24.93
2022-09-26T07:13:25.640Z,25.07
2022-09-26T07:16:29.393Z,25.11
2022-09-26T07:19:32.454Z,24.85
2022-09-26T07:22:37.567Z,24.61
2022-09-26T07:25:42.755Z,24.88
2022-09-26T07:28:46.991Z,24.72
2022-09-26T07:31:52.720Z,24.79
2022-09-26T07:34:55.905Z,24.62
2022-09-26T07:37:58.942Z,24.48
2022-09-26T07:41:02.241Z,24.43
2022-09-26T07:47:29.472Z,24.26
2022-09-26T07:50:32.515Z,24.40
2022-09-26T07:53:35.582Z,24.31
2022-09-26T07:56:38.602Z,24.14
2022-09-26T07:59:41.698Z,24.05
2022-09-26T08:02:46.142Z,24.24
2022-09-26T08:05:49.474Z,24.19
2022-09-26T08:08:58.467Z,24.16
2022-09-26T08:12:01.597Z,24.15
2022-09-26T08:15:06.677Z,24.15
2022-09-26T08:18:12.284Z,23.99
2022-09-26T08:21:15.327Z,24.19
2022-09-26T08:24:18.379Z,24.15
2022-09-26T08:27:21.817Z,24.26
2022-09-26T08:30:24.838Z,24.57
2022-09-26T08:33:28.311Z,24.71
2022-09-26T08:36:31.368Z,24.61
2022-09-26T08:39:34.417Z,24.75
2022-09-26T08:42:49.317Z,24.89
2022-09-26T08:46:17.273Z,24.99
2022-09-26T08:49:41.532Z,25.18
2022-09-26T08:52:45.496Z,25.09
2022-09-26T08:55:49.925Z,25.36
2022-09-26T08:58:54.724Z,25.47
2022-09-26T09:02:03.343Z,25.30
2022-09-26T09:05:06.538Z,25.40
2022-09-26T09:08:16.528Z,25.44
2022-09-26T09:11:39.539Z,25.33
2022-09-26T09:15:24.629Z,25.23
2022-09-26T09:18:43.895Z,25.04
2022-09-26T09:22:02.387Z,25.12
2022-09-26T09:25:31.673Z,25.32
2022-09-26T09:28:59.390Z,25.42
2022-09-26T09:32:02.982Z,25.41
2022-09-26T09:35:06.291Z,25.43
2022-09-26T09:38:16.601Z,25.24
2022-09-26T09:41:41.742Z,24.96
2022-09-26T09:44:48.319Z,24.99
2022-09-26T09:47:51.457Z,24.80
2022-09-26T09:51:12.743Z,25.00
2022-09-26T09:54:18.488Z,24.87
2022-09-26T09:57:27.771Z,24.98
2022-09-26T10:00:32.575Z,24.88
2022-09-26T10:03:48.511Z,24.82
2022-09-26T10:06:51.935Z,24.82
2022-09-26T10:09:54.997Z,24.75
2022-09-26T10:12:58.138Z,24.92
2022-09-26T10:16:13.218Z,24.96
2022-09-26T10:19:16.613Z,24.84
2022-09-26T10:22:25.822Z,24.84
2022-09-26T10:25:28.979Z,24.65
2022-09-26T10:28:37.563Z,24.87
2022-09-26T10:31:42.778Z,24.57
2022-09-26T10:35:05.896Z,24.74
2022-09-26T10:38:22.965Z,24.23
2022-09-26T10:41:26.510Z,24.41
2022-09-26T10:44:32.552Z,24.24
2022-09-26T10:47:35.958Z,24.40
2022-09-26T10:50:39.113Z,24.37
2022-09-26T10:53:42.706Z,24.56
2022-09-26T10:56:48.073Z,24.35
2022-09-26T10:59:52.430Z,24.07
2022-09-26T11:02:55.463Z,24.00
2022-09-26T11:06:01.166Z,24.05
2022-09-26T11:09:05.348Z,24.51
2022-09-26T11:12:37.630Z,24.05
2022-09-26T11:15:40.787Z,24.15
2022-09-26T11:18:52.977Z,24.15
2022-09-26T11:22:25.525Z,24.03
2022-09-26T11:25:32.362Z,24.43
2022-09-26T11:29:05.083Z,24.31
2022-09-26T11:32:14.600Z,23.72
2022-09-26T11:35:26.297Z,23.79
2022-09-26T11:38:47.732Z,23.75
2022-09-26T11:42:16.611Z,24.09
2022-09-26T11:45:47.351Z,24.21
2022-09-26T11:49:14.894Z,24.02
2022-09-26T11:52:19.443Z,24.02
2022-09-26T11:55:43.980Z,24.10
2022-09-26T11:59:06.888Z,23.99
2022-09-26T12:02:46.518Z,23.77
2022-09-26T12:05:59.764Z,23.85
2022-09-26T12:09:21.329Z,23.68
2022-09-26T12:13:02.991Z,23.94
2022-09-26T12:17:01.378Z,23.35
2022-09-26T12:21:01.936Z,23.21
2022-09-26T12:24:07.800Z,23.39
2022-09-26T12:27:34.773Z,23.54
2022-09-26T12:31:07.050Z,23.58
2022-09-26T12:34:44.982Z,23.58
2022-09-26T12:38:17.549Z,23.51
2022-09-26T12:41:59.136Z,23.39
2022-09-26T12:45:37.981Z,23.21
2022-09-26T12:48:56.000Z,23.65
2022-09-26T12:52:16.227Z,23.57
2022-09-26T12:55:25.696Z,23.78
2022-09-26T12:59:13.945Z,23.77
2022-09-26T13:02:22.955Z,23.53
2022-09-26T13:05:46.474Z,23.64
2022-09-26T13:08:52.215Z,23.48
2022-09-26T13:12:26.793Z,23.88
2022-09-26T13:15:42.394Z,23.70
2022-09-26T13:18:54.533Z,23.90
2022-09-26T13:22:00.829Z,24.00
2022-09-26T13:25:12.830Z,23.90
2022-09-26T13:28:44.614Z,23.79
2022-09-26T13:32:19.358Z,23.72
2022-09-26T13:35:27.625Z,24.37
2022-09-26T13:38:52.445Z,24.56
2022-09-26T13:42:08.886Z,24.46
2022-09-26T13:45:41.082Z,24.62
2022-09-26T13:48:50.134Z,25.04
2022-09-26T13:52:22.721Z,24.87
2022-09-26T13:55:27.825Z,24.90
2022-09-26T13:58:39.609Z,25.08
2022-09-26T14:02:19.815Z,25.09
2022-09-26T14:05:23.078Z,24.87
2022-09-26T14:08:26.143Z,25.46
2022-09-26T14:11:50.037Z,25.68
2022-09-26T14:15:15.147Z,25.84
2022-09-26T14:18:33.177Z,25.58
2022-09-26T14:21:41.909Z,25.29
2022-09-26T14:24:46.444Z,25.93
2022-09-26T14:27:49.489Z,26.32
2022-09-26T14:31:26.744Z,25.95
2022-09-26T14:34:53.941Z,26.15
2022-09-26T14:38:11.897Z,26.24
2022-09-26T14:41:19.890Z,26.21
2022-09-26T14:44:26.329Z,26.59
2022-09-26T14:47:38.158Z,26.46
2022-09-26T14:51:07.408Z,26.70
2022-09-26T14:54:26.507Z,26.97
2022-09-26T14:57:32.656Z,27.03
2022-09-26T15:00:44.033Z,26.84
2022-09-26T15:04:17.704Z,26.97
2022-09-26T15:07:27.180Z,27.48
2022-09-26T15:10:40.988Z,26.91
2022-09-26T15:13:46.167Z,26.99
2022-09-26T15:16:52.311Z,27.24
2022-09-26T15:19:57.018Z,27.42
2022-09-26T15:23:00.842Z,27.99
2022-09-26T15:26:04.272Z,27.92
2022-09-26T15:29:08.055Z,28.50
2022-09-26T15:32:29.062Z,28.22
2022-09-26T15:35:33.155Z,28.50
2022-09-26T15:38:36.175Z,28.76
2022-09-26T15:41:48.328Z,28.90
2022-09-26T15:44:59.824Z,29.31
2022-09-26T15:48:21.293Z,28.67
2022-09-26T15:51:30.046Z,28.83
2022-09-26T15:54:33.152Z,29.13
2022-09-26T15:57:36.224Z,29.78
2022-09-26T16:00:50.843Z,29.83
2022-09-26T16:04:13.932Z,30.23
2022-09-26T16:07:23.695Z,29.87
2022-09-26T16:10:36.304Z,29.87
2022-09-26T16:13:43.489Z,30.27
2022-09-26T16:16:46.537Z,30.37
2022-09-26T16:19:52.904Z,30.03
2022-09-26T16:23:04.003Z,29.07
2022-09-26T16:26:24.729Z,29.59
2022-09-26T16:29:36.057Z,30.24
2022-09-26T16:32:39.260Z,30.34
2022-09-26T16:35:48.296Z,30.71
2022-09-26T16:39:14.997Z,30.88
2022-09-26T16:42:18.290Z,31.29
2022-09-26T16:45:23.428Z,31.19
2022-09-26T16:48:53.823Z,31.50
2022-09-26T16:52:32.851Z,31.44
2022-09-26T16:55:37.324Z,31.45
2022-09-26T16:58:48.985Z,31.28
2022-09-26T17:01:57.140Z,31.37
2022-09-26T17:05:00.228Z,31.89
2022-09-26T17:08:03.173Z,31.66
2022-09-26T17:11:14.195Z,31.26
2022-09-26T17:14:23.049Z,30.50
2022-09-26T17:17:26.111Z,31.83
2022-09-26T17:20:29.339Z,32.00
2022-09-26T17:23:40.628Z,31.68
2022-09-26T17:26:54.802Z,32.19
2022-09-26T17:30:05.784Z,31.63
2022-09-26T17:33:13.463Z,32.10
2022-09-26T17:36:27.680Z,32.63
2022-09-26T17:39:30.717Z,32.73
2022-09-26T17:42:35.202Z,31.83
2022-09-26T17:45:46.090Z,31.93
2022-09-26T17:48:49.640Z,31.81
2022-09-26T17:51:52.994Z,31.54
2022-09-26T17:54:58.078Z,31.30
2022-09-26T17:58:01.165Z,31.26
2022-09-26T18:01:04.906Z,32.42
2022-09-26T18:04:09.835Z,32.25
2022-09-26T18:07:13.279Z,32.21
2022-09-26T18:10:35.774Z,32.20
2022-09-26T18:13:45.967Z,31.56
2022-09-26T18:16:49.105Z,31.90
2022-09-26T18:19:52.094Z,31.70
2022-09-26T18:22:55.144Z,31.61
2022-09-26T18:25:59.375Z,31.19
2022-09-26T18:29:07.525Z,31.34
2022-09-26T18:32:29.103Z,31.28
2022-09-26T18:35:32.196Z,31.49
2022-09-26T18:38:35.288Z,30.97
2022-09-26T18:41:40.797Z,31.37
2022-09-26T18:44:44.311Z,30.48
2022-09-26T18:47:47.467Z,30.77
2022-09-26T18:50:50.599Z,31.18
2022-09-26T18:53:53.630Z,30.98
2022-09-26T18:56:56.682Z,30.36
2022-09-26T19:00:00.011Z,30.67
2022-09-26T19:03:03.179Z,30.66
2022-09-26T19:06:19.096Z,30.48
2022-09-26T19:09:22.633Z,31.00
2022-09-26T19:12:25.807Z,31.03
2022-09-26T19:15:28.871Z,31.22
2022-09-26T19:18:31.972Z,31.22
2022-09-26T19:21:38.301Z,31.08
2022-09-26T19:24:42.966Z,31.43
2022-09-26T19:27:51.336Z,31.13
2022-09-26T19:30:55.680Z,30.92
2022-09-26T19:33:58.875Z,30.73
2022-09-26T19:37:02.070Z,30.82
2022-09-26T19:40:18.508Z,30.99
2022-09-26T19:43:22.180Z,31.15
2022-09-26T19:46:29.259Z,30.88
2022-09-26T19:49:32.514Z,31.01
2022-09-26T19:52:35.574Z,31.26
2022-09-26T19:55:38.647Z,30.90
2022-09-26T19:58:41.792Z,31.08
2022-09-26T20:01:48.466Z,31.11
2022-09-26T20:04:52.098Z,30.57
2022-09-26T20:07:55.121Z,30.53
2022-09-26T20:10:58.701Z,30.73
2022-09-26T20:14:01.677Z,30.84
2022-09-26T20:17:15.398Z,30.77
2022-09-26T20:20:23.465Z,31.00
2022-09-26T20:23:27.800Z,30.90
2022-09-26T20:26:31.392Z,30.69
2022-09-26T20:29:37.038Z,30.59
2022-09-26T20:32:40.201Z,30.78
2022-09-26T20:35:47.472Z,30.60
2022-09-26T20:38:51.618Z,30.86
2022-09-26T20:41:54.761Z,30.30
2022-09-26T20:44:57.814Z,30.11
2022-09-26T20:48:01.189Z,30.84
2022-09-26T20:51:05.837Z,30.41
2022-09-26T20:54:32.562Z,30.52
2022-09-26T20:57:35.551Z,30.67
2022-09-26T21:00:38.723Z,30.25
2022-09-26T21:03:53.770Z,30.60
2022-09-26T21:06:57.125Z,30.72
2022-09-26T21:10:00.202Z,31.09
2022-09-26T21:13:03.277Z,30.85
2022-09-26T21:16:07.088Z,30.84
2022-09-26T21:19:22.602Z,30.44
2022-09-26T21:22:28.463Z,30.99
2022-09-26T21:25:33.083Z,30.98
2022-09-26T21:28:36.085Z,30.69
2022-09-26T21:31:39.703Z,30.89
2022-09-26T21:34:50.228Z,30.77
2022-09-26T21:37:54.305Z,30.41
2022-09-26T21:40:59.546Z,30.28
2022-09-26T21:44:11.457Z,30.28
2022-09-26T21:47:14.561Z,30.18
2022-09-26T21:50:18.227Z,29.98
2022-09-26T21:53:26.110Z,30.16
2022-09-26T21:56:31.790Z,30.23
2022-09-26T21:59:36.556Z,30.36
2022-09-26T22:02:39.861Z,30.24
2022-09-26T22:05:42.861Z,30.15
2022-09-26T22:08:46.008Z,30.50
2022-09-26T22:11:48.974Z,30.41
2022-09-26T22:14:52.119Z,30.19
2022-09-26T22:17:55.735Z,31.78
2022-09-26T22:20:58.818Z,32.01
2022-09-26T22:24:02.142Z,31.74
2022-09-26T22:27:05.579Z,30.34
2022-09-26T22:30:09.696Z,29.85
2022-09-26T22:33:12.808Z,29.49
2022-09-26T22:36:17.996Z,29.51
2022-09-26T22:39:21.043Z,29.59
2022-09-26T22:42:24.088Z,29.77
2022-09-26T22:45:27.141Z,29.68
2022-09-26T22:48:38.403Z,29.47
2022-09-26T22:51:41.422Z,29.39
2022-09-26T22:54:44.596Z,29.15
2022-09-26T22:57:50.635Z,29.20
2022-09-26T23:00:53.660Z,28.95
2022-09-26T23:03:58.561Z,28.95
2022-09-26T23:07:01.539Z,28.97
2022-09-26T23:10:04.744Z,29.27
2022-09-26T23:13:07.743Z,28.78
2022-09-26T23:16:12.771Z,29.01
2022-09-26T23:19:15.869Z,29.01
2022-09-26T23:22:21.590Z,29.15
2022-09-26T23:25:24.618Z,29.05
2022-09-26T23:28:28.113Z,28.87
2022-09-26T23:31:31.112Z,28.74
2022-09-26T23:34:34.154Z,28.55
2022-09-26T23:37:37.257Z,28.43
2022-09-26T23:40:40.595Z,28.47
2022-09-26T23:43:43.931Z,28.37
2022-09-26T23:46:47.132Z,28.49
2022-09-26T23:49:50.175Z,28.35
2022-09-26T23:52:53.391Z,28.27
2022-09-26T23:56:07.999Z,28.08
2022-09-26T23:59:11.085Z,28.14
